createdAt,value
2023-01-08T00:00:00.332Z,101.50
2023-01-08T00:02:27.174Z,101.50
2023-01-08T00:04:54.005Z,101.17
2023-01-08T00:07:20.864Z,107.53
2023-01-08T00:09:50.645Z,102.60
2023-01-08T00:12:17.617Z,113.13
2023-01-08T00:14:44.450Z,135.53
2023-01-08T00:17:11.273Z,117.40
2023-01-08T00:19:38.123Z,117.67
2023-01-08T00:22:04.927Z,118.03
2023-01-08T00:24:31.717Z,106.40
2023-01-08T00:26:58.528Z,112.90
2023-01-08T00:29:25.325Z,115.43
2023-01-08T00:31:52.533Z,102.80
2023-01-08T00:34:19.351Z,116.03
2023-01-08T00:36:46.191Z,132.70
2023-01-08T00:39:13.027Z,106.53
2023-01-08T00:41:44.255Z,114.10
2023-01-08T00:44:11.230Z,156.60
2023-01-08T00:46:38.049Z,131.30
2023-01-08T00:49:04.959Z,120.33
2023-01-08T00:51:31.783Z,107.33
2023-01-08T00:53:59.382Z,111.07
2023-01-08T00:56:26.237Z,171.33
2023-01-08T00:58:53.059Z,130.77
2023-01-08T01:01:19.978Z,110.53
2023-01-08T01:03:46.941Z,109.97
2023-01-08T01:06:14.652Z,113.40
2023-01-08T01:08:42.194Z,114.13
2023-01-08T01:11:11.186Z,117.93
2023-01-08T01:13:38.034Z,112.43
2023-01-08T01:16:05.248Z,103.23
2023-01-08T01:18:32.274Z,103.07
2023-01-08T01:20:59.141Z,108.87
2023-01-08T01:23:26.145Z,106.73
2023-01-08T01:25:54.566Z,121.60
2023-01-08T01:28:21.455Z,113.13
2023-01-08T01:30:54.539Z,108.10
2023-01-08T01:33:21.517Z,109.20
2023-01-08T01:35:48.383Z,108.70
2023-01-08T01:38:15.251Z,103.77
2023-01-08T01:40:43.427Z,112.27
2023-01-08T01:43:14.705Z,116.60
2023-01-08T01:45:42.628Z,126.07
2023-01-08T01:48:15.804Z,138.03
2023-01-08T01:50:44.266Z,117.73
2023-01-08T01:53:22.094Z,111.37
2023-01-08T01:55:49.582Z,109.00
2023-01-08T01:58:27.304Z,107.67
2023-01-08T02:00:56.386Z,107.23
2023-01-08T02:03:25.687Z,108.80
2023-01-08T02:06:18.611Z,105.57
2023-01-08T02:08:56.255Z,106.83
2023-01-08T02:11:41.209Z,111.87
2023-01-08T02:14:35.830Z,111.07
2023-01-08T02:17:09.821Z,112.13
2023-01-08T02:19:53.225Z,119.27
2023-01-08T02:22:28.743Z,128.60
2023-01-08T02:25:28.897Z,118.07
2023-01-08T02:27:57.205Z,117.77
2023-01-08T02:30:25.499Z,109.90
2023-01-08T02:32:52.352Z,109.07
2023-01-08T02:35:19.213Z,113.77
2023-01-08T02:37:46.118Z,112.33
2023-01-08T02:40:21.493Z,114.40
2023-01-08T02:43:00.150Z,116.70
2023-01-08T02:45:47.252Z,122.63
2023-01-08T02:48:27.868Z,116.37
2023-01-08T02:51:14.219Z,120.60
2023-01-08T02:53:45.640Z,119.37
2023-01-08T02:56:16.810Z,108.13
2023-01-08T02:58:45.077Z,118.53
2023-01-08T03:01:14.689Z,108.83
2023-01-08T03:03:46.728Z,113.27
2023-01-08T03:06:18.289Z,119.37
2023-01-08T03:08:48.260Z,115.80
2023-01-08T03:11:18.181Z,111.60
2023-01-08T03:14:19.120Z,112.70
2023-01-08T03:17:13.537Z,103.97
2023-01-08T03:19:45.270Z,101.33
2023-01-08T03:22:15.530Z,104.60
2023-01-08T03:24:44.890Z,104.07
2023-01-08T03:27:17.406Z,101.73
2023-01-08T03:29:46.684Z,103.80
2023-01-08T03:32:16.426Z,103.97
2023-01-08T03:34:47.231Z,97.43
2023-01-08T03:37:16.784Z,98.40
2023-01-08T03:39:54.251Z,99.93
2023-01-08T03:42:22.834Z,97.43
2023-01-08T03:44:49.705Z,101.27
2023-01-08T03:47:16.907Z,103.20
2023-01-08T03:49:44.694Z,103.23
2023-01-08T03:52:22.093Z,90.90
2023-01-08T03:54:48.927Z,91.07
2023-01-08T03:57:15.751Z,88.87
2023-01-08T03:59:42.602Z,92.80
2023-01-08T04:02:09.606Z,102.13
2023-01-08T04:04:36.695Z,94.10
2023-01-08T04:07:03.555Z,101.40
2023-01-08T04:09:30.360Z,101.27
2023-01-08T04:11:57.255Z,100.63
2023-01-08T04:14:24.070Z,103.33
2023-01-08T04:16:50.923Z,101.30
2023-01-08T04:19:17.731Z,110.80
2023-01-08T04:21:44.665Z,109.00
2023-01-08T04:24:12.915Z,103.23
2023-01-08T04:26:39.752Z,109.77
2023-01-08T04:29:06.571Z,110.53
2023-01-08T04:31:33.466Z,90.50
2023-01-08T04:34:00.290Z,96.90
2023-01-08T04:36:27.105Z,90.60
2023-01-08T04:38:53.994Z,97.63
2023-01-08T04:41:20.836Z,128.23
2023-01-08T04:43:47.700Z,130.10
2023-01-08T04:46:14.585Z,126.00
2023-01-08T04:48:41.467Z,117.47
2023-01-08T04:51:08.411Z,150.20
2023-01-08T04:53:37.643Z,186.70
2023-01-08T04:56:07.018Z,95.63
2023-01-08T04:58:34.792Z,90.60
2023-01-08T05:01:02.047Z,81.83
2023-01-08T05:03:28.944Z,84.57
2023-01-08T05:05:55.768Z,87.53
2023-01-08T05:08:22.564Z,89.33
2023-01-08T05:10:49.397Z,88.77
2023-01-08T05:13:16.243Z,91.03
2023-01-08T05:15:43.133Z,87.30
2023-01-08T05:18:10.308Z,87.70
2023-01-08T05:20:37.196Z,82.63
2023-01-08T05:23:04.300Z,83.67
2023-01-08T05:25:31.176Z,81.60
2023-01-08T05:27:58.013Z,75.93
2023-01-08T05:30:24.909Z,77.90
2023-01-08T05:32:51.762Z,79.00
2023-01-08T05:35:18.835Z,84.83
2023-01-08T05:37:45.662Z,86.20
2023-01-08T05:40:12.709Z,70.27
2023-01-08T05:42:39.855Z,70.97
2023-01-08T05:45:07.927Z,60.27
2023-01-08T05:47:35.640Z,68.17
2023-01-08T05:50:02.510Z,65.00
2023-01-08T05:52:30.062Z,65.90
2023-01-08T05:54:56.984Z,59.83
2023-01-08T05:57:23.808Z,70.40
2023-01-08T05:59:50.675Z,62.57
2023-01-08T06:02:17.711Z,56.53
2023-01-08T06:04:44.585Z,54.40
2023-01-08T06:07:11.448Z,63.07
2023-01-08T06:09:38.279Z,61.57
2023-01-08T06:12:05.353Z,62.50
2023-01-08T06:14:32.277Z,65.23
2023-01-08T06:16:59.135Z,58.97
2023-01-08T06:19:26.061Z,60.40
2023-01-08T06:21:52.959Z,54.67
2023-01-08T06:24:19.791Z,52.40
2023-01-08T06:26:46.689Z,52.20
2023-01-08T06:29:13.550Z,50.90
2023-01-08T06:31:40.503Z,57.40
2023-01-08T06:34:07.420Z,61.10
2023-01-08T06:36:34.293Z,76.73
2023-01-08T06:39:01.171Z,68.20
2023-01-08T06:41:28.223Z,56.40
2023-01-08T06:43:55.020Z,52.97
2023-01-08T06:46:21.866Z,50.90
2023-01-08T06:48:48.805Z,49.60
2023-01-08T06:51:15.644Z,47.60
2023-01-08T06:53:42.598Z,50.40
2023-01-08T06:56:11.051Z,52.83
2023-01-08T06:58:38.952Z,51.50
2023-01-08T07:01:05.826Z,55.90
2023-01-08T07:03:32.879Z,53.90
2023-01-08T07:06:02.996Z,57.17
2023-01-08T07:08:29.816Z,62.33
2023-01-08T07:10:56.679Z,62.87
2023-01-08T07:13:24.462Z,108.50
2023-01-08T07:15:51.379Z,68.67
2023-01-08T07:18:18.334Z,65.17
2023-01-08T07:20:45.190Z,62.57
2023-01-08T07:23:12.244Z,67.07
2023-01-08T07:25:39.386Z,68.93
2023-01-08T07:28:06.985Z,83.63
2023-01-08T07:30:33.992Z,82.63
2023-01-08T07:33:01.909Z,73.47
2023-01-08T07:35:29.111Z,65.43
2023-01-08T07:37:56.725Z,60.83
2023-01-08T07:40:24.023Z,60.40
2023-01-08T07:43:05.066Z,60.23
2023-01-08T07:45:32.695Z,59.50
2023-01-08T07:48:00.949Z,93.23
2023-01-08T07:50:28.159Z,118.57
2023-01-08T07:53:01.731Z,168.23
2023-01-08T07:55:30.325Z,264.00
2023-01-08T07:57:57.169Z,99.07
2023-01-08T08:00:24.068Z,75.33
2023-01-08T08:02:51.141Z,60.50
2023-01-08T08:05:18.328Z,52.27
2023-01-08T08:07:45.235Z,103.57
2023-01-08T08:10:12.258Z,68.77
2023-01-08T08:12:39.083Z,66.97
2023-01-08T08:15:06.610Z,68.27
2023-01-08T08:17:33.528Z,80.63
2023-01-08T08:20:00.376Z,117.30
2023-01-08T08:22:27.485Z,74.30
2023-01-08T08:24:54.396Z,70.80
2023-01-08T08:27:21.322Z,89.57
2023-01-08T08:29:48.161Z,90.33
2023-01-08T08:32:15.009Z,78.83
2023-01-08T08:34:42.029Z,77.00
2023-01-08T08:37:09.731Z,77.87
2023-01-08T08:39:37.174Z,69.57
2023-01-08T08:42:04.193Z,65.93
2023-01-08T08:44:31.083Z,58.97
2023-01-08T08:46:58.080Z,57.27
2023-01-08T08:49:25.044Z,55.60
2023-01-08T08:51:53.196Z,45.33
2023-01-08T08:54:20.271Z,38.83
2023-01-08T08:56:48.608Z,35.37
2023-01-08T08:59:15.844Z,38.03
2023-01-08T09:01:43.180Z,31.87
2023-01-08T09:04:10.280Z,33.53
2023-01-08T09:06:37.332Z,32.90
2023-01-08T09:09:04.687Z,35.50
2023-01-08T09:11:32.123Z,32.93
2023-01-08T09:13:58.979Z,40.50
2023-01-08T09:16:25.919Z,49.77
2023-01-08T09:18:52.974Z,44.13
2023-01-08T09:21:19.856Z,37.70
2023-01-08T09:23:48.779Z,37.80
2023-01-08T09:26:16.309Z,35.80
2023-01-08T09:28:43.195Z,37.17
2023-01-08T09:31:10.302Z,34.93
2023-01-08T09:33:37.297Z,37.77
2023-01-08T09:36:05.361Z,42.30
2023-01-08T09:38:32.229Z,38.60
2023-01-08T09:41:03.793Z,44.43
2023-01-08T09:43:33.486Z,36.20
2023-01-08T09:46:03.855Z,38.17
2023-01-08T09:48:41.388Z,39.47
2023-01-08T09:51:17.031Z,36.53
2023-01-08T09:53:45.185Z,39.23
2023-01-08T09:56:17.912Z,71.87
2023-01-08T09:58:56.827Z,45.40
2023-01-08T10:01:30.422Z,71.80
2023-01-08T10:04:06.868Z,84.33
2023-01-08T10:06:34.084Z,124.67
2023-01-08T10:09:01.120Z,230.30
2023-01-08T10:11:38.738Z,346.63
2023-01-08T10:14:17.303Z,102.40
2023-01-08T10:16:47.615Z,57.17
2023-01-08T10:19:14.766Z,156.27
2023-01-08T10:21:42.000Z,108.80
2023-01-08T10:24:09.035Z,43.43
2023-01-08T10:26:38.117Z,54.37
2023-01-08T10:29:17.173Z,66.30
2023-01-08T10:31:54.398Z,51.43
2023-01-08T10:34:43.163Z,36.57
2023-01-08T10:37:29.685Z,33.40
2023-01-08T10:40:20.400Z,36.43
2023-01-08T10:42:47.574Z,42.17
2023-01-08T10:45:21.661Z,36.57
2023-01-08T10:47:51.637Z,28.70
2023-01-08T10:50:25.702Z,29.93
2023-01-08T10:52:58.532Z,29.63
2023-01-08T10:55:37.644Z,33.13
2023-01-08T10:58:10.389Z,32.57
2023-01-08T11:00:38.347Z,39.43
2023-01-08T11:03:21.113Z,42.83
2023-01-08T11:05:48.692Z,39.37
2023-01-08T11:08:18.577Z,33.17
2023-01-08T11:10:58.613Z,35.30
2023-01-08T11:13:26.798Z,85.47
2023-01-08T11:16:08.424Z,52.03
2023-01-08T11:18:48.318Z,42.03
2023-01-08T11:21:27.134Z,37.93
2023-01-08T11:24:27.891Z,32.40
2023-01-08T11:27:14.720Z,31.57
2023-01-08T11:29:46.631Z,31.73
2023-01-08T11:32:19.401Z,38.13
2023-01-08T11:34:55.735Z,29.93
2023-01-08T11:37:22.750Z,28.17
2023-01-08T11:39:50.011Z,25.07
2023-01-08T11:42:37.415Z,24.33
2023-01-08T11:45:17.050Z,33.30
2023-01-08T11:48:20.577Z,23.90
2023-01-08T11:51:14.566Z,24.10
2023-01-08T11:53:51.170Z,26.70
2023-01-08T11:56:51.308Z,28.60
2023-01-08T11:59:56.211Z,30.77
2023-01-08T12:02:54.412Z,54.57
2023-01-08T12:05:58.712Z,46.60
2023-01-08T12:08:49.689Z,28.20
2023-01-08T12:11:36.965Z,31.93
2023-01-08T12:14:28.975Z,37.70
2023-01-08T12:17:24.737Z,35.03
2023-01-08T12:19:51.737Z,41.53
2023-01-08T12:22:38.883Z,34.73
2023-01-08T12:25:43.759Z,29.03
2023-01-08T12:28:16.245Z,26.60
2023-01-08T12:30:59.898Z,27.33
2023-01-08T12:33:44.690Z,24.60
2023-01-08T12:36:18.607Z,21.43
2023-01-08T12:38:53.015Z,21.20
2023-01-08T12:41:20.559Z,23.07
2023-01-08T12:44:02.178Z,20.13
2023-01-08T12:46:34.275Z,27.37
2023-01-08T12:49:01.966Z,22.50
2023-01-08T12:51:34.951Z,17.83
2023-01-08T12:54:14.523Z,19.40
2023-01-08T12:56:59.051Z,21.23
2023-01-08T12:59:59.309Z,20.33
2023-01-08T13:02:47.958Z,18.97
2023-01-08T13:05:37.041Z,21.40
2023-01-08T13:08:37.083Z,21.90
2023-01-08T13:11:04.771Z,20.20
2023-01-08T13:13:45.326Z,22.67
2023-01-08T13:16:12.277Z,32.13
2023-01-08T13:18:39.283Z,20.23
2023-01-08T13:21:09.678Z,26.30
2023-01-08T13:23:36.721Z,23.10
2023-01-08T13:26:06.272Z,21.47
2023-01-08T13:28:38.870Z,24.43
2023-01-08T13:31:20.714Z,26.57
2023-01-08T13:33:49.492Z,27.40
2023-01-08T13:36:21.734Z,25.93
2023-01-08T13:39:06.706Z,25.10
2023-01-08T13:41:41.742Z,22.53
2023-01-08T13:44:41.149Z,19.63
2023-01-08T13:47:19.250Z,19.37
2023-01-08T13:49:53.355Z,18.43
2023-01-08T13:52:46.248Z,23.13
2023-01-08T13:55:33.948Z,23.70
2023-01-08T13:58:17.528Z,21.13
2023-01-08T14:00:44.332Z,19.03
2023-01-08T14:03:29.929Z,24.40
2023-01-08T14:06:26.986Z,21.73
2023-01-08T14:09:04.263Z,25.50
2023-01-08T14:11:46.641Z,24.27
2023-01-08T14:14:17.259Z,23.03
2023-01-08T14:16:46.164Z,26.07
2023-01-08T14:19:24.580Z,26.03
2023-01-08T14:21:54.718Z,23.63
2023-01-08T14:24:23.562Z,27.23
2023-01-08T14:26:58.826Z,30.83
2023-01-08T14:29:30.881Z,30.53
2023-01-08T14:32:00.687Z,35.67
2023-01-08T14:34:31.272Z,35.97
2023-01-08T14:36:58.332Z,44.00
2023-01-08T14:39:36.647Z,44.30
2023-01-08T14:42:39.009Z,37.47
2023-01-08T14:45:07.964Z,44.20
2023-01-08T14:47:39.261Z,29.43
2023-01-08T14:50:07.465Z,29.30
2023-01-08T14:52:39.359Z,33.27
2023-01-08T14:55:06.583Z,31.20
2023-01-08T14:57:33.540Z,38.77
2023-01-08T15:00:01.955Z,37.30
2023-01-08T15:02:34.944Z,40.37
2023-01-08T15:05:16.668Z,45.83
2023-01-08T15:07:59.119Z,45.50
2023-01-08T15:10:42.313Z,45.60
2023-01-08T15:13:36.076Z,43.00
2023-01-08T15:16:16.091Z,37.27
2023-01-08T15:18:46.228Z,36.23
2023-01-08T15:21:18.786Z,41.70
2023-01-08T15:23:55.022Z,37.23
2023-01-08T15:26:23.635Z,36.20
2023-01-08T15:28:58.486Z,53.80
2023-01-08T15:31:30.815Z,46.53
2023-01-08T15:33:58.991Z,54.27
2023-01-08T15:36:26.410Z,46.27
2023-01-08T15:38:53.293Z,54.37
2023-01-08T15:41:41.423Z,67.40
2023-01-08T15:44:10.625Z,52.50
2023-01-08T15:46:37.515Z,55.00
2023-01-08T15:49:04.810Z,62.17
2023-01-08T15:51:34.161Z,61.53
2023-01-08T15:54:01.956Z,59.43
2023-01-08T15:56:28.822Z,64.13
2023-01-08T15:58:55.779Z,62.03
2023-01-08T16:01:22.735Z,58.23
2023-01-08T16:03:50.136Z,50.00
2023-01-08T16:06:17.126Z,58.97
2023-01-08T16:08:46.242Z,63.83
2023-01-08T16:11:13.866Z,60.40
2023-01-08T16:13:40.763Z,61.83
2023-01-08T16:16:10.221Z,56.57
2023-01-08T16:18:38.492Z,63.83
2023-01-08T16:21:07.058Z,55.67
2023-01-08T16:23:38.250Z,67.20
2023-01-08T16:26:06.802Z,66.03
2023-01-08T16:28:33.676Z,61.50
2023-01-08T16:31:00.566Z,57.53
2023-01-08T16:33:27.911Z,53.13
2023-01-08T16:36:03.338Z,51.73
2023-01-08T16:38:31.692Z,48.67
2023-01-08T16:41:00.229Z,43.70
2023-01-08T16:43:29.736Z,48.33
2023-01-08T16:45:57.046Z,51.17
2023-01-08T16:48:24.360Z,47.50
2023-01-08T16:50:51.664Z,48.73
2023-01-08T16:53:19.046Z,50.53
2023-01-08T16:55:45.886Z,58.43
2023-01-08T16:58:12.788Z,50.97
2023-01-08T17:00:40.520Z,43.37
2023-01-08T17:03:07.437Z,51.97
2023-01-08T17:05:36.926Z,47.73
2023-01-08T17:08:03.995Z,45.73
2023-01-08T17:10:30.974Z,56.00
2023-01-08T17:12:57.878Z,75.80
2023-01-08T17:15:24.805Z,87.67
2023-01-08T17:17:51.869Z,60.20
2023-01-08T17:20:20.097Z,61.30
2023-01-08T17:22:47.184Z,58.67
2023-01-08T17:25:14.262Z,66.50
2023-01-08T17:27:42.188Z,57.23
2023-01-08T17:30:14.101Z,54.43
2023-01-08T17:32:41.429Z,61.27
2023-01-08T17:35:08.787Z,58.10
2023-01-08T17:37:36.082Z,66.03
2023-01-08T17:40:03.645Z,69.57
2023-01-08T17:42:31.214Z,62.90
2023-01-08T17:45:02.967Z,91.63
2023-01-08T17:47:31.289Z,87.57
2023-01-08T17:49:58.187Z,89.47
2023-01-08T17:52:25.885Z,71.97
2023-01-08T17:54:53.382Z,75.73
2023-01-08T17:57:21.212Z,75.37
2023-01-08T17:59:48.843Z,70.83
2023-01-08T18:02:17.307Z,67.93
2023-01-08T18:04:45.685Z,73.37
2023-01-08T18:07:13.290Z,75.33
2023-01-08T18:09:40.465Z,94.77
2023-01-08T18:12:07.942Z,79.90
2023-01-08T18:14:39.127Z,72.03
2023-01-08T18:17:06.548Z,76.90
2023-01-08T18:19:33.456Z,70.23
2023-01-08T18:22:00.948Z,59.20
2023-01-08T18:24:27.916Z,58.37
2023-01-08T18:26:54.739Z,56.97
2023-01-08T18:29:22.020Z,51.30
2023-01-08T18:31:49.109Z,52.17
2023-01-08T18:34:16.281Z,57.27
2023-01-08T18:36:43.266Z,49.80
2023-01-08T18:39:14.618Z,63.57
2023-01-08T18:42:00.119Z,51.10
2023-01-08T18:44:27.033Z,48.60
2023-01-08T18:46:54.229Z,51.07
2023-01-08T18:49:21.515Z,50.90
2023-01-08T18:51:48.348Z,69.00
2023-01-08T18:54:15.768Z,88.40
2023-01-08T18:56:42.799Z,92.70
2023-01-08T18:59:11.444Z,93.57
2023-01-08T19:01:39.610Z,89.50
2023-01-08T19:04:06.951Z,70.20
2023-01-08T19:06:33.889Z,55.03
2023-01-08T19:09:01.208Z,53.17
2023-01-08T19:11:28.150Z,48.27
2023-01-08T19:13:56.952Z,47.60
2023-01-08T19:16:24.475Z,48.20
2023-01-08T19:18:51.449Z,47.93
2023-01-08T19:21:19.481Z,46.67
2023-01-08T19:23:47.722Z,44.27
2023-01-08T19:26:15.605Z,38.73
2023-01-08T19:28:43.310Z,46.13
2023-01-08T19:31:13.824Z,43.37
2023-01-08T19:33:41.212Z,49.20
2023-01-08T19:36:12.650Z,45.00
2023-01-08T19:38:40.656Z,42.27
2023-01-08T19:41:30.608Z,43.40
2023-01-08T19:43:58.449Z,61.33
2023-01-08T19:46:26.317Z,61.00
2023-01-08T19:48:56.025Z,63.67
2023-01-08T19:51:23.127Z,67.77
2023-01-08T19:53:50.067Z,68.10
2023-01-08T19:56:17.099Z,65.80
2023-01-08T19:58:44.106Z,79.60
2023-01-08T20:01:12.558Z,82.60
2023-01-08T20:03:40.149Z,71.67
2023-01-08T20:06:09.547Z,69.17
2023-01-08T20:08:36.800Z,65.97
2023-01-08T20:11:09.976Z,60.20
2023-01-08T20:13:37.717Z,58.20
2023-01-08T20:16:06.515Z,69.03
2023-01-08T20:18:36.263Z,63.30
2023-01-08T20:21:08.770Z,69.13
2023-01-08T20:23:36.608Z,65.33
2023-01-08T20:26:24.016Z,71.23
2023-01-08T20:28:50.850Z,77.73
2023-01-08T20:31:20.003Z,103.47
2023-01-08T20:33:47.540Z,84.97
2023-01-08T20:36:20.964Z,83.27
2023-01-08T20:38:52.407Z,66.53
2023-01-08T20:41:19.562Z,63.37
2023-01-08T20:43:46.831Z,65.07
2023-01-08T20:46:14.893Z,69.10
2023-01-08T20:48:47.798Z,62.40
2023-01-08T20:51:15.166Z,60.83
2023-01-08T20:53:42.277Z,61.60
2023-01-08T20:56:12.669Z,59.53
2023-01-08T20:58:42.653Z,53.33
2023-01-08T21:01:10.870Z,61.00
2023-01-08T21:03:38.736Z,55.27
2023-01-08T21:06:11.632Z,54.00
2023-01-08T21:08:40.684Z,55.57
2023-01-08T21:11:09.202Z,55.73
2023-01-08T21:13:37.043Z,67.97
2023-01-08T21:16:07.938Z,69.87
2023-01-08T21:18:34.952Z,82.50
2023-01-08T21:21:03.911Z,77.93
2023-01-08T21:23:32.626Z,81.23
2023-01-08T21:26:02.192Z,85.67
2023-01-08T21:28:29.375Z,76.83
2023-01-08T21:31:03.541Z,78.60
2023-01-08T21:33:30.528Z,65.57
2023-01-08T21:35:57.433Z,63.67
2023-01-08T21:38:24.366Z,58.77
2023-01-08T21:41:02.355Z,58.07
2023-01-08T21:43:47.665Z,69.47
2023-01-08T21:46:16.313Z,93.77
2023-01-08T21:48:49.908Z,75.47
2023-01-08T21:51:35.675Z,68.37
2023-01-08T21:54:03.067Z,60.93
2023-01-08T21:56:30.825Z,70.03
2023-01-08T21:58:57.695Z,72.83
2023-01-08T22:01:24.683Z,72.67
2023-01-08T22:03:51.900Z,75.03
2023-01-08T22:06:18.783Z,77.13
2023-01-08T22:08:51.327Z,75.37
2023-01-08T22:11:18.476Z,81.40
2023-01-08T22:13:45.620Z,86.20
2023-01-08T22:16:13.245Z,176.13
2023-01-08T22:18:40.474Z,87.70
2023-01-08T22:21:12.733Z,86.30
2023-01-08T22:23:39.657Z,82.20
2023-01-08T22:26:08.556Z,85.77
2023-01-08T22:28:39.302Z,80.17
2023-01-08T22:31:08.187Z,78.37
2023-01-08T22:33:35.564Z,97.20
2023-01-08T22:36:03.790Z,93.17
2023-01-08T22:38:30.800Z,89.20
2023-01-08T22:40:57.640Z,86.53
2023-01-08T22:43:24.490Z,92.83
2023-01-08T22:45:55.167Z,92.63
2023-01-08T22:48:22.314Z,113.37
2023-01-08T22:50:49.352Z,99.93
2023-01-08T22:53:16.434Z,101.63
2023-01-08T22:55:46.390Z,94.57
2023-01-08T22:58:17.551Z,95.87
2023-01-08T23:00:44.989Z,102.20
2023-01-08T23:03:13.269Z,96.53
2023-01-08T23:05:40.579Z,89.07
2023-01-08T23:08:08.893Z,92.47
2023-01-08T23:10:35.933Z,103.87
2023-01-08T23:13:02.804Z,105.93
2023-01-08T23:15:30.615Z,102.83
2023-01-08T23:17:57.489Z,102.53
2023-01-08T23:20:25.119Z,100.00
2023-01-08T23:22:51.998Z,101.23
2023-01-08T23:25:18.859Z,95.93
2023-01-08T23:27:45.835Z,91.73
2023-01-08T23:30:13.043Z,99.37
2023-01-08T23:32:40.410Z,103.87
2023-01-08T23:35:07.689Z,99.07
2023-01-08T23:37:34.845Z,97.03
2023-01-08T23:40:01.747Z,95.03
2023-01-08T23:42:29.777Z,94.53
2023-01-08T23:44:56.881Z,102.90
2023-01-08T23:47:23.957Z,102.23
2023-01-08T23:49:50.777Z,96.90
2023-01-08T23:52:17.560Z,89.00
2023-01-08T23:54:44.371Z,88.50
2023-01-08T23:57:11.169Z,96.60
2023-01-08T23:59:38.010Z,97.20
